createdAt,value
2018-08-03T00:00:40.962Z,14.20
2018-08-03T00:03:09.035Z,15.30
2018-08-03T00:05:37.089Z,14.87
2018-08-03T00:08:05.179Z,12.63
2018-08-03T00:10:33.245Z,16.70
2018-08-03T00:13:01.315Z,15.20
2018-08-03T00:15:29.379Z,16.10
2018-08-03T00:17:57.457Z,15.83
2018-08-03T00:20:25.529Z,15.27
2018-08-03T00:22:53.589Z,15.70
2018-08-03T00:25:21.882Z,15.90
2018-08-03T00:27:49.894Z,14.03
2018-08-03T00:30:18.001Z,16.67
2018-08-03T00:32:46.073Z,16.07
2018-08-03T00:35:14.154Z,16.50
2018-08-03T00:37:42.249Z,15.73
2018-08-03T00:40:10.304Z,15.87
2018-08-03T00:42:38.404Z,15.60
2018-08-03T00:45:06.531Z,17.53
2018-08-03T00:47:34.937Z,16.80
2018-08-03T00:50:03.031Z,17.00
2018-08-03T00:52:31.099Z,17.07
2018-08-03T00:54:59.417Z,16.33
2018-08-03T00:57:27.489Z,16.93
2018-08-03T00:59:55.575Z,17.20
2018-08-03T01:02:23.617Z,17.33
2018-08-03T01:04:51.568Z,16.30
2018-08-03T01:07:19.664Z,18.23
2018-08-03T01:09:47.698Z,17.57
2018-08-03T01:12:15.730Z,17.07
2018-08-03T01:14:44.064Z,18.50
2018-08-03T01:17:12.147Z,18.40
2018-08-03T01:19:40.199Z,20.40
2018-08-03T01:22:08.307Z,17.90
2018-08-03T01:24:36.431Z,17.73
2018-08-03T01:27:04.521Z,16.60
2018-08-03T01:29:32.601Z,16.27
2018-08-03T01:32:00.721Z,16.47
2018-08-03T01:34:28.801Z,16.80
2018-08-03T01:36:56.873Z,16.90
2018-08-03T01:39:24.957Z,19.07
2018-08-03T01:41:53.026Z,17.70
2018-08-03T01:44:21.101Z,17.63
2018-08-03T01:46:49.151Z,16.37
2018-08-03T01:49:17.204Z,19.03
2018-08-03T01:51:45.256Z,19.40
2018-08-03T01:54:13.128Z,19.87
2018-08-03T01:56:41.197Z,19.57
2018-08-03T01:59:09.345Z,20.20
2018-08-03T02:01:37.364Z,16.93
2018-08-03T02:04:05.441Z,17.97
2018-08-03T02:06:33.534Z,17.23
2018-08-03T02:09:01.596Z,16.50
2018-08-03T02:11:30.111Z,18.17
2018-08-03T02:13:58.147Z,18.13
2018-08-03T02:16:26.270Z,18.50
2018-08-03T02:18:54.739Z,18.77
2018-08-03T02:21:22.767Z,18.83
2018-08-03T02:23:50.835Z,19.00
2018-08-03T02:26:18.916Z,16.90
2018-08-03T02:28:47.045Z,16.67
2018-08-03T02:31:15.192Z,16.93
2018-08-03T02:33:43.249Z,18.23
2018-08-03T02:36:11.304Z,18.73
2018-08-03T02:38:39.438Z,17.53
2018-08-03T02:41:07.581Z,18.47
2018-08-03T02:43:35.619Z,17.37
2018-08-03T02:46:03.664Z,18.67
2018-08-03T02:48:31.728Z,16.73
2018-08-03T02:50:59.813Z,16.63
2018-08-03T02:53:29.032Z,17.80
2018-08-03T02:55:57.084Z,16.20
2018-08-03T02:58:25.103Z,15.53
2018-08-03T03:00:53.131Z,17.57
2018-08-03T03:03:21.242Z,18.13
2018-08-03T03:05:49.322Z,17.40
2018-08-03T03:08:17.436Z,18.03
2018-08-03T03:10:45.295Z,15.97
2018-08-03T03:13:13.389Z,18.10
2018-08-03T03:15:41.443Z,18.13
2018-08-03T03:18:09.487Z,17.10
2018-08-03T03:20:37.540Z,18.60
2018-08-03T03:23:05.633Z,15.70
2018-08-03T03:25:33.725Z,17.67
2018-08-03T03:28:01.791Z,16.80
2018-08-03T03:30:29.916Z,17.60
2018-08-03T03:32:57.988Z,16.80
2018-08-03T03:35:26.068Z,17.63
2018-08-03T03:37:54.129Z,18.70
2018-08-03T03:40:22.379Z,17.10
2018-08-03T03:42:50.517Z,17.67
2018-08-03T03:45:18.606Z,17.83
2018-08-03T03:47:46.640Z,17.00
2018-08-03T03:50:14.755Z,16.47
2018-08-03T03:52:42.862Z,16.73
2018-08-03T03:55:10.985Z,18.10
2018-08-03T03:57:39.047Z,18.27
2018-08-03T04:00:07.900Z,16.90
2018-08-03T04:02:36.124Z,16.93
2018-08-03T04:05:04.589Z,17.57
2018-08-03T04:07:32.733Z,18.30
2018-08-03T04:10:00.783Z,19.03
2018-08-03T04:12:28.842Z,17.70
2018-08-03T04:14:57.123Z,16.83
2018-08-03T04:17:25.316Z,18.20
2018-08-03T04:19:53.426Z,18.20
2018-08-03T04:22:21.443Z,18.30
2018-08-03T04:24:49.334Z,17.87
2018-08-03T04:27:17.367Z,17.50
2018-08-03T04:29:45.305Z,16.47
2018-08-03T04:32:13.359Z,16.77
2018-08-03T04:34:41.447Z,16.50
2018-08-03T04:37:09.697Z,17.40
2018-08-03T04:39:37.727Z,16.77
2018-08-03T04:42:05.792Z,19.43
2018-08-03T04:44:33.884Z,17.00
2018-08-03T04:47:01.954Z,17.10
2018-08-03T04:49:30.280Z,16.90
2018-08-03T04:51:58.381Z,17.73
2018-08-03T04:54:26.447Z,16.80
2018-08-03T04:56:54.551Z,17.20
2018-08-03T04:59:22.616Z,15.80
2018-08-03T05:01:50.934Z,16.83
2018-08-03T05:04:19.418Z,16.13
2018-08-03T05:06:47.583Z,16.87
2018-08-03T05:09:15.715Z,16.87
2018-08-03T05:11:43.861Z,15.63
2018-08-03T05:14:12.084Z,17.40
2018-08-03T05:16:40.178Z,17.07
2018-08-03T05:19:08.315Z,16.90
2018-08-03T05:21:36.481Z,17.87
2018-08-03T05:24:04.586Z,18.73
2018-08-03T05:26:32.783Z,17.00
2018-08-03T05:29:01.003Z,18.30
2018-08-03T05:31:29.027Z,18.80
2018-08-03T05:33:57.222Z,18.10
2018-08-03T05:36:25.493Z,16.87
2018-08-03T05:38:53.603Z,16.70
2018-08-03T05:41:21.711Z,18.47
2018-08-03T05:43:49.890Z,18.03
2018-08-03T05:46:18.097Z,15.73
2018-08-03T05:48:46.208Z,17.70
2018-08-03T05:51:14.432Z,16.30
2018-08-03T05:53:42.585Z,17.83
2018-08-03T05:56:10.782Z,16.83
2018-08-03T05:58:38.959Z,18.17
2018-08-03T06:01:07.632Z,15.20
2018-08-03T06:03:35.867Z,17.63
2018-08-03T06:06:03.900Z,16.77
2018-08-03T06:08:31.997Z,15.93
2018-08-03T06:11:00.173Z,16.87
2018-08-03T06:13:29.022Z,16.57
2018-08-03T06:15:57.181Z,16.37
2018-08-03T06:18:25.318Z,16.40
2018-08-03T06:20:53.652Z,15.57
2018-08-03T06:23:21.846Z,15.43
2018-08-03T06:25:49.981Z,15.30
2018-08-03T06:28:18.120Z,15.87
2018-08-03T06:30:46.252Z,16.93
2018-08-03T06:33:14.408Z,16.10
2018-08-03T06:35:42.563Z,15.00
2018-08-03T06:38:10.751Z,14.70
2018-08-03T06:40:38.956Z,15.70
2018-08-03T06:43:07.200Z,15.57
2018-08-03T06:45:35.302Z,15.63
2018-08-03T06:48:03.380Z,14.70
2018-08-03T06:50:31.549Z,14.00
2018-08-03T06:52:59.725Z,13.70
2018-08-03T06:55:27.811Z,13.97
2018-08-03T06:57:55.867Z,15.57
2018-08-03T07:00:23.956Z,14.23
2018-08-03T07:02:52.074Z,15.30
2018-08-03T07:05:20.113Z,13.73
2018-08-03T07:07:48.209Z,14.23
2018-08-03T07:10:16.331Z,16.30
2018-08-03T07:12:44.363Z,16.10
2018-08-03T07:15:12.483Z,16.33
2018-08-03T07:17:40.546Z,15.40
2018-08-03T07:20:08.654Z,15.00
2018-08-03T07:22:36.704Z,15.40
2018-08-03T07:25:05.172Z,16.13
2018-08-03T07:27:33.272Z,15.00
2018-08-03T07:30:01.378Z,14.83
2018-08-03T07:32:29.490Z,17.10
2018-08-03T07:34:57.589Z,17.23
2018-08-03T07:37:25.699Z,16.27
2018-08-03T07:39:53.835Z,16.77
2018-08-03T07:42:21.902Z,15.10
2018-08-03T07:44:50.046Z,14.67
2018-08-03T07:47:18.126Z,15.67
2018-08-03T07:49:46.201Z,15.10
2018-08-03T07:52:14.275Z,16.53
2018-08-03T07:54:42.312Z,15.57
2018-08-03T07:57:10.432Z,16.00
2018-08-03T07:59:38.496Z,14.20
2018-08-03T08:02:06.923Z,16.17
2018-08-03T08:04:35.077Z,15.30
2018-08-03T08:07:03.131Z,18.53
2018-08-03T08:09:31.280Z,14.33
2018-08-03T08:11:59.319Z,15.50
2018-08-03T08:14:27.413Z,12.57
2018-08-03T08:16:55.564Z,12.83
2018-08-03T08:19:23.589Z,13.80
2018-08-03T08:21:51.680Z,15.87
2018-08-03T08:24:19.716Z,14.93
2018-08-03T08:26:47.818Z,13.80
2018-08-03T08:29:15.937Z,12.93
2018-08-03T08:31:44.009Z,14.20
2018-08-03T08:34:12.602Z,14.57
2018-08-03T08:36:40.634Z,13.00
2018-08-03T08:39:11.201Z,14.23
2018-08-03T08:41:39.324Z,14.30
2018-08-03T08:44:07.381Z,13.20
2018-08-03T08:46:35.998Z,12.47
2018-08-03T08:49:04.540Z,14.03
2018-08-03T08:51:32.652Z,11.97
2018-08-03T08:54:00.751Z,12.13
2018-08-03T08:56:29.033Z,14.33
2018-08-03T08:58:57.117Z,14.10
2018-08-03T09:01:25.236Z,11.70
2018-08-03T09:03:53.668Z,13.63
2018-08-03T09:06:21.744Z,13.90
2018-08-03T09:08:49.840Z,14.37
2018-08-03T09:11:17.904Z,14.67
2018-08-03T09:13:46.030Z,12.20
2018-08-03T09:16:14.159Z,11.67
2018-08-03T09:18:42.320Z,12.23
2018-08-03T09:21:10.398Z,12.40
2018-08-03T09:23:38.511Z,11.50
2018-08-03T09:26:06.584Z,10.30
2018-08-03T09:28:34.746Z,11.10
2018-08-03T09:31:02.887Z,11.10
2018-08-03T09:33:30.941Z,11.40
2018-08-03T09:35:58.978Z,11.23
2018-08-03T09:38:26.849Z,9.83
2018-08-03T09:40:54.749Z,11.67
2018-08-03T09:43:22.793Z,10.70
2018-08-03T09:45:50.886Z,11.50
2018-08-03T09:48:18.986Z,11.20
2018-08-03T09:50:47.058Z,12.27
2018-08-03T09:53:15.166Z,11.07
2018-08-03T09:55:43.223Z,11.90
2018-08-03T09:58:11.278Z,10.40
2018-08-03T10:00:45.255Z,11.00
2018-08-03T10:03:13.367Z,10.57
2018-08-03T10:05:41.420Z,10.10
2018-08-03T10:08:09.492Z,11.20
2018-08-03T10:10:37.574Z,10.67
2018-08-03T10:13:05.644Z,11.37
2018-08-03T10:15:33.782Z,11.00
2018-08-03T10:18:01.885Z,9.80
2018-08-03T10:20:29.985Z,9.50
2018-08-03T10:22:58.038Z,10.63
2018-08-03T10:25:26.122Z,9.23
2018-08-03T10:27:54.267Z,9.70
2018-08-03T10:30:22.361Z,10.27
2018-08-03T10:32:50.405Z,8.60
2018-08-03T10:35:18.464Z,9.20
2018-08-03T10:37:46.553Z,9.83
2018-08-03T10:40:14.653Z,9.50
2018-08-03T10:42:42.713Z,10.00
2018-08-03T10:45:10.724Z,9.33
2018-08-03T10:47:38.869Z,10.53
2018-08-03T10:50:07.009Z,10.10
2018-08-03T10:52:35.102Z,8.83
2018-08-03T10:55:03.761Z,9.03
2018-08-03T10:57:32.065Z,9.07
2018-08-03T11:00:00.451Z,10.60
2018-08-03T11:02:28.499Z,9.27
2018-08-03T11:04:56.609Z,11.27
2018-08-03T11:07:24.737Z,9.60
2018-08-03T11:09:53.324Z,9.00
2018-08-03T11:12:21.388Z,8.13
2018-08-03T11:14:49.482Z,7.53
2018-08-03T11:17:17.543Z,8.60
2018-08-03T11:19:45.644Z,8.80
2018-08-03T11:22:13.674Z,7.47
2018-08-03T11:24:41.724Z,7.13
2018-08-03T11:27:09.789Z,7.13
2018-08-03T11:29:37.895Z,7.10
2018-08-03T11:32:05.985Z,6.83
2018-08-03T11:34:34.041Z,7.40
2018-08-03T11:37:02.150Z,7.43
2018-08-03T11:39:30.261Z,6.87
2018-08-03T11:41:58.368Z,7.03
2018-08-03T11:44:26.406Z,6.20
2018-08-03T11:46:54.254Z,6.40
2018-08-03T11:49:22.320Z,7.03
2018-08-03T11:51:50.408Z,6.10
2018-08-03T11:54:18.488Z,5.93
2018-08-03T11:56:46.523Z,5.63
2018-08-03T11:59:14.592Z,6.40
2018-08-03T12:01:42.660Z,6.43
2018-08-03T12:04:10.759Z,6.40
2018-08-03T12:06:38.875Z,6.83
2018-08-03T12:09:07.444Z,6.03
2018-08-03T12:11:35.553Z,7.13
2018-08-03T12:14:03.626Z,7.70
2018-08-03T12:16:31.736Z,7.20
2018-08-03T12:18:59.926Z,6.70
2018-08-03T12:21:28.004Z,6.57
2018-08-03T12:23:56.075Z,6.80
2018-08-03T12:26:24.120Z,6.30
2018-08-03T12:28:52.238Z,7.10
2018-08-03T12:31:20.356Z,6.63
2018-08-03T12:33:48.410Z,6.23
2018-08-03T12:36:16.470Z,5.57
2018-08-03T12:38:44.520Z,5.97
2018-08-03T12:41:12.562Z,5.70
2018-08-03T12:43:40.693Z,6.37
2018-08-03T12:46:08.786Z,6.70
2018-08-03T12:48:36.840Z,6.27
2018-08-03T12:51:05.092Z,5.90
2018-08-03T12:53:33.185Z,5.40
2018-08-03T12:56:01.305Z,5.33
2018-08-03T12:58:29.377Z,5.80
2018-08-03T13:00:57.515Z,5.97
2018-08-03T13:03:25.612Z,5.60
2018-08-03T13:05:53.706Z,5.77
2018-08-03T13:08:21.925Z,6.70
2018-08-03T13:10:49.893Z,6.03
2018-08-03T13:13:18.114Z,6.07
2018-08-03T13:15:46.221Z,6.60
2018-08-03T13:18:14.296Z,6.60
2018-08-03T13:20:42.448Z,6.60
2018-08-03T13:23:10.538Z,7.23
2018-08-03T13:25:38.620Z,7.20
2018-08-03T13:28:06.740Z,7.50
2018-08-03T13:30:34.765Z,7.90
2018-08-03T13:33:02.928Z,7.10
2018-08-03T13:35:30.964Z,6.53
2018-08-03T13:37:59.078Z,6.27
2018-08-03T13:40:27.160Z,6.83
2018-08-03T13:42:55.324Z,5.90
2018-08-03T13:45:29.939Z,5.97
2018-08-03T22:16:50.855Z,12.60
2018-08-03T22:19:19.032Z,11.17
2018-08-03T22:21:47.180Z,10.40
2018-08-03T22:24:15.303Z,9.73
2018-08-03T22:26:43.436Z,8.87
2018-08-03T22:29:11.592Z,8.60
2018-08-03T22:31:39.659Z,7.50
2018-08-03T22:34:07.781Z,8.07
2018-08-03T22:36:35.924Z,6.57
2018-08-03T22:39:05.435Z,8.33
2018-08-03T22:41:33.495Z,6.87
2018-08-03T22:44:01.576Z,6.60
2018-08-03T22:46:29.681Z,6.93
2018-08-03T22:48:57.802Z,8.43
2018-08-03T22:51:25.937Z,7.97
2018-08-03T22:53:54.030Z,7.00
2018-08-03T22:56:22.209Z,8.27
2018-08-03T22:58:50.336Z,7.97
2018-08-03T23:01:18.500Z,7.47
2018-08-03T23:03:46.720Z,5.87
2018-08-03T23:06:14.847Z,6.93
2018-08-03T23:08:42.994Z,6.43
2018-08-03T23:11:11.128Z,6.10
2018-08-03T23:13:39.317Z,7.80
2018-08-03T23:16:07.448Z,7.70
2018-08-03T23:18:35.654Z,5.80
2018-08-03T23:21:03.743Z,7.17
2018-08-03T23:23:31.864Z,6.50
2018-08-03T23:26:00.040Z,7.13
2018-08-03T23:28:28.164Z,6.70
2018-08-03T23:30:56.206Z,6.03
2018-08-03T23:33:24.376Z,8.47
2018-08-03T23:35:52.559Z,7.27
2018-08-03T23:38:20.769Z,6.50
2018-08-03T23:40:48.838Z,7.27
2018-08-03T23:43:16.984Z,6.87
2018-08-03T23:45:45.166Z,6.60
2018-08-03T23:48:13.272Z,7.07
2018-08-03T23:50:41.354Z,7.40
2018-08-03T23:53:09.444Z,5.83
2018-08-03T23:55:37.616Z,7.20
2018-08-03T23:58:05.861Z,6.80
